Coastal Inspiration — CFN4970 — position and weather

sailwx.info

Track history (hours):
 
Tides and Currents Weather Stations Pressure Air Temp Water Temp Dewpoint Dewpoint Depression Visibility Wind Speed Wind Dir Waves Ship Positions

Coastal Inspiration

Last reported at 2014-Nov-26 04:33 UTC. Time now 2014-Nov-26 05:10 UTC.
Position N 49°12' W 123°53'.

Length 160 m; draft 6 m.

Type: Passenger vessel. MMSI: 316011408.

Date/timePositionNaut miles runAvg speedWind from/ knotsBaromVisibWave heightAir tempDewpointWater temp
2014-Nov-26 04:33N 49°12' W 123°53'1 1.4
2014-Nov-26 03:34N 49°13' W 123°50'2019.9
2014-Nov-26 02:34N 49°05' W 123°23'1110.6
2014-Nov-26 01:33N 49°00' W 123°08'1414.4
2014-Nov-26 00:33N 49°05' W 123°28'1717.2
2014-Nov-25 23:33N 49°11' W 123°53'1 1.0
2014-Nov-25 22:34N 49°12' W 123°53'1918.7
2014-Nov-25 21:33N 49°06' W 123°26'1313.2
2014-Nov-25 20:33N 49°00' W 123°08'1111.1
2014-Nov-25 19:33N 49°03' W 123°24'1918.9
2014-Nov-25 18:33N 49°13' W 123°49'3 2.9
2014-Nov-25 17:34N 49°12' W 123°53'1817.8
2014-Nov-25 16:33N 49°07' W 123°27'1414.1
2014-Nov-25 15:33N 49°00' W 123°08'1211.9
2014-Nov-25 14:33N 49°04' W 123°25'1918.6
2014-Nov-25 13:33N 49°13' W 123°50'4 1.7
2014-Nov-25 11:18N 49°10' W 123°53'0 0.0
2014-Nov-25 10:33N 49°10' W 123°53'2 1.1
2014-Nov-25 08:33N 49°12' W 123°53'1818.6
2014-Nov-25 07:33N 49°06' W 123°26'1313.4
2014-Nov-25 06:33N 49°00' W 123°08'1111.5
2014-Nov-25 05:33N 49°03' W 123°25'1818.4
2014-Nov-25 04:33N 49°13' W 123°49'4 3.6
2014-Nov-25 03:33N 49°11' W 123°53'1818.4
2014-Nov-25 02:33N 49°06' W 123°26'1313.3
2014-Nov-25 01:33N 49°00' W 123°08'1212.2
2014-Nov-25 00:33N 49°04' W 123°26'1818.3
2014-Nov-24 23:33N 49°13' W 123°50'2 2.5
2014-Nov-24 22:33N 49°12' W 123°53'1817.6
2014-Nov-24 21:33N 49°07' W 123°27'1414.1
2014-Nov-24 20:33N 49°00' W 123°08'1111.1
2014-Nov-24 19:34N 49°04' W 123°24'1918.8
2014-Nov-24 18:33N 49°13' W 123°49'3 2.8
2014-Nov-24 17:33N 49°12' W 123°53'1817.7
2014-Nov-24 16:33N 49°07' W 123°27'1414.2
2014-Nov-24 15:33N 49°00' W 123°08'1111.3
2014-Nov-24 14:33N 49°03' W 123°24'1918.7
2014-Nov-24 13:33N 49°13' W 123°49'4 4.2
2014-Nov-24 12:32N 49°10' W 123°53'0 0.0
2014-Nov-24 11:32N 49°10' W 123°53'0 0.0
2014-Nov-24 10:33N 49°10' W 123°53'0 0.0
2014-Nov-24 09:33N 49°10' W 123°53'1 0.5
2014-Nov-24 08:33N 49°10' W 123°53'1716.4
2014-Nov-24 07:33N 49°07' W 123°28'1515.3
2014-Nov-24 06:34N 49°00' W 123°08'1212.1
2014-Nov-24 05:34N 49°04' W 123°25'1818.5
2014-Nov-24 04:34N 49°13' W 123°50'0 0.3
2014-Nov-24 03:33N 49°13' W 123°50'1918.7
2014-Nov-24 02:34N 49°08' W 123°22'1212.1
2014-Nov-24 01:33N 49°00' W 123°08'1211.6
2014-Nov-24 00:33N 49°04' W 123°25'1918.7
2014-Nov-23 23:33N 49°13' W 123°50'2 2.4
2014-Nov-23 22:33N 49°12' W 123°53'1817.9
2014-Nov-23 21:33N 49°06' W 123°27'1414.1
2014-Nov-23 20:34N 49°00' W 123°08'1212.2
2014-Nov-23 19:34N 49°04' W 123°26'1918.5
2014-Nov-23 18:33N 49°13' W 123°51'3 2.7
2014-Nov-23 17:17N 49°10' W 123°53'0 0.0
2014-Nov-23 16:29N 49°10' W 123°53'0 0.0
2014-Nov-23 15:33N 49°10' W 123°53'0 0.0
2014-Nov-23 14:33N 49°10' W 123°53'0 0.0
2014-Nov-23 13:33N 49°10' W 123°53'0 0.0
2014-Nov-23 12:33N 49°10' W 123°53'0 0.0
2014-Nov-23 11:33N 49°10' W 123°53'0 0.0
2014-Nov-23 10:33N 49°10' W 123°53'0 0.0
2014-Nov-23 09:33N 49°10' W 123°53'0 0.0
2014-Nov-23 08:33N 49°10' W 123°53'0 0.0
2014-Nov-23 07:33N 49°10' W 123°53'0 0.0
2014-Nov-23 06:30N 49°10' W 123°53'0 0.0
2014-Nov-23 05:33N 49°10' W 123°53'0 0.0
2014-Nov-23 04:33N 49°10' W 123°53'0 0.0
2014-Nov-23 03:32N 49°10' W 123°53'0 0.0
2014-Nov-23 01:31N 49°10' W 123°53'8 8.5
2014-Nov-23 00:33N 49°11' W 123°41'1919.3
2014-Nov-22 23:33N 49°01' W 123°16'3 3.2
2014-Nov-22 22:33N 49°00' W 123°12'1818.1
2014-Nov-22 21:33N 49°09' W 123°36'1111.5
2014-Nov-22 20:33N 49°10' W 123°53'10 9.6
2014-Nov-22 19:33N 49°11' W 123°39'1918.9
2014-Nov-22 18:33N 49°01' W 123°14'2 1.8
2014-Nov-22 17:33N 48°60' W 123°12'1818.1
2014-Nov-22 16:33N 49°09' W 123°36'1111.3
2014-Nov-22 15:33N 49°10' W 123°53'0 0.0
2014-Nov-22 14:27N 49°10' W 123°53'1 0.1
2014-Nov-22 08:33N 49°11' W 123°53'1717.0
2014-Nov-22 07:33N 49°07' W 123°28'1514.9
2014-Nov-22 06:33N 49°00' W 123°08'1111.5
2014-Nov-22 05:33N 49°04' W 123°25'1918.8
2014-Nov-22 04:33N 49°13' W 123°49'1 1.3
2014-Nov-22 03:33N 49°13' W 123°51'1918.7
2014-Nov-22 02:33N 49°06' W 123°25'1212.3
2014-Nov-22 01:34N 49°00' W 123°08'1212.1
2014-Nov-22 00:33N 49°04' W 123°26'1918.7
2014-Nov-21 23:33N 49°13' W 123°50'1 1.1
2014-Nov-21 22:33N 49°13' W 123°52'1817.7
2014-Nov-21 21:33N 49°06' W 123°26'1413.5
2014-Nov-21 20:33N 49°00' W 123°08'1010.0
2014-Nov-21 19:33N 49°03' W 123°23'1919.3
2014-Nov-21 18:33N 49°13' W 123°48'3 3.0
2014-Nov-21 17:34N 49°12' W 123°53'1817.5
2014-Nov-21 16:34N 49°06' W 123°27'1414.0
2014-Nov-21 15:33N 49°00' W 123°08'1212.0
2014-Nov-21 14:34N 49°04' W 123°25'1817.8
2014-Nov-21 13:33N 49°13' W 123°49'4 1.9
2014-Nov-21 11:19N 49°10' W 123°53'0 0.0
2014-Nov-21 10:21N 49°10' W 123°53'0 0.0
2014-Nov-21 09:12N 49°10' W 123°53'1 0.8
2014-Nov-21 08:33N 49°10' W 123°53'1716.9
2014-Nov-21 07:33N 49°07' W 123°28'1514.7
2014-Nov-21 06:34N 49°00' W 123°08'1312.5
2014-Nov-21 05:34N 49°04' W 123°26'1818.3
2014-Nov-21 04:34N 49°13' W 123°51'0 0.3
2014-Nov-21 03:33N 49°13' W 123°51'1818.5
2014-Nov-21 02:33N 49°05' W 123°25'1211.7
2014-Nov-21 01:31N 49°00' W 123°08'1313.6
2014-Nov-21 00:33N 49°05' W 123°27'1717.4
2014-Nov-20 23:34N 49°13' W 123°50'1 0.9
2014-Nov-20 22:33N 49°13' W 123°52'1817.7
2014-Nov-20 21:33N 49°06' W 123°27'1413.6
2014-Nov-20 20:33N 49°00' W 123°08'1212.4
2014-Nov-20 19:33N 49°04' W 123°26'1818.2
2014-Nov-20 18:33N 49°13' W 123°50'1 1.1
2014-Nov-20 17:33N 49°13' W 123°51'1717.4
2014-Nov-20 16:34N 49°06' W 123°27'1413.6
2014-Nov-20 15:33N 49°00' W 123°08'1212.1
2014-Nov-20 14:33N 49°04' W 123°26'1818.2
2014-Nov-20 13:33N 49°13' W 123°50'3 0.7
2014-Nov-20 08:33N 49°11' W 123°53'1616.5
2014-Nov-20 07:33N 49°07' W 123°29'1515.3
2014-Nov-20 06:33N 49°00' W 123°08'1211.7
2014-Nov-20 05:33N 49°04' W 123°25'1818.0
2014-Nov-20 04:34N 49°13' W 123°49'2 1.8
2014-Nov-20 03:33N 49°13' W 123°51'1817.6
2014-Nov-20 02:33N 49°06' W 123°26'1313.2
2014-Nov-20 01:33N 49°00' W 123°08'1212.4
2014-Nov-20 00:34N 49°04' W 123°26'1817.5
2014-Nov-19 23:33N 49°13' W 123°49'2 2.2
2014-Nov-19 22:33N 49°12' W 123°52'1817.5
2014-Nov-19 21:33N 49°06' W 123°27'1414.0
2014-Nov-19 20:33N 49°00' W 123°08'1010.3
2014-Nov-19 19:33N 49°03' W 123°23'1919.4
2014-Nov-19 18:34N 49°13' W 123°48'3 2.9
2014-Nov-19 17:33N 49°12' W 123°53'1717.5
2014-Nov-19 16:33N 49°06' W 123°28'1414.3
2014-Nov-19 15:33N 49°00' W 123°08'1312.7
2014-Nov-19 14:34N 49°04' W 123°26'1717.3
2014-Nov-19 13:34N 49°13' W 123°49'4 4.1
2014-Nov-19 12:32N 49°10' W 123°53'0 0.0
2014-Nov-19 11:33N 49°10' W 123°53'0 0.0
2014-Nov-19 10:33N 49°10' W 123°53'1 0.5
2014-Nov-19 08:33N 49°11' W 123°53'1717.2
2014-Nov-19 07:33N 49°07' W 123°28'1514.7
2014-Nov-19 06:33N 49°00' W 123°08'1211.8
2014-Nov-19 05:33N 49°04' W 123°25'1818.1
2014-Nov-19 04:33N 49°13' W 123°49'1 1.4
2014-Nov-19 03:33N 49°13' W 123°51'1818.0
2014-Nov-19 02:33N 49°06' W 123°26'1312.9
2014-Nov-19 01:33N 49°00' W 123°08'1312.8
2014-Nov-19 00:33N 49°04' W 123°26'1717.4
2014-Nov-18 23:33N 49°13' W 123°50'3 2.5
2014-Nov-18 22:34N 49°12' W 123°53'1817.6
2014-Nov-18 21:33N 49°07' W 123°27'1414.3
2014-Nov-18 20:33N 49°00' W 123°08'1211.8
2014-Nov-18 19:33N 49°04' W 123°25'1918.6
2014-Nov-18 18:33N 49°13' W 123°50'1 0.6
2014-Nov-18 17:33N 49°13' W 123°51'1616.0
2014-Nov-18 16:32N 49°06' W 123°28'1414.6
2014-Nov-18 15:33N 49°00' W 123°08'1212.0
2014-Nov-18 14:34N 49°04' W 123°25'1717.3
2014-Nov-18 13:33N 49°13' W 123°48'5 4.7
2014-Nov-18 12:34N 49°10' W 123°53'0 0.0
2014-Nov-18 11:32N 49°10' W 123°53'0 0.0
2014-Nov-18 10:25N 49°10' W 123°53'0 0.0
2014-Nov-18 09:33N 49°10' W 123°53'1 0.7
2014-Nov-18 08:33N 49°10' W 123°53'1717.1
2014-Nov-18 07:33N 49°07' W 123°28'1514.8
2014-Nov-18 06:33N 49°00' W 123°08'1312.5
2014-Nov-18 05:33N 49°04' W 123°26'1817.8
2014-Nov-18 04:33N 49°13' W 123°50'0 0.3
2014-Nov-18 03:33N 49°13' W 123°50'1918.6
2014-Nov-18 02:33N 49°06' W 123°24'1211.7
2014-Nov-18 01:34N 49°00' W 123°08'1312.5
2014-Nov-18 00:34N 49°04' W 123°26'1717.4
2014-Nov-17 23:33N 49°13' W 123°49'2 2.2
2014-Nov-17 22:33N 49°12' W 123°52'1817.8
2014-Nov-17 21:34N 49°07' W 123°27'1413.9
2014-Nov-17 20:33N 49°00' W 123°08'1212.0
2014-Nov-17 19:33N 49°04' W 123°25'1818.1
2014-Nov-17 18:33N 49°13' W 123°49'1 1.1
2014-Nov-17 17:33N 49°13' W 123°51'1817.6
2014-Nov-17 16:33N 49°06' W 123°26'1313.2
2014-Nov-17 15:33N 49°00' W 123°08'1211.7
2014-Nov-17 14:33N 49°04' W 123°25'1817.6
2014-Nov-17 13:33N 49°13' W 123°48'5 3.2
2014-Nov-17 12:07N 49°10' W 123°53'0 0.0
2014-Nov-17 10:33N 49°10' W 123°53'0 0.1
2014-Nov-17 08:33N 49°10' W 123°53'1616.1
2014-Nov-17 07:33N 49°07' W 123°29'1513.9
2014-Nov-17 06:27N 49°00' W 123°08'1112.7
2014-Nov-17 05:33N 49°03' W 123°25'1918.9
2014-Nov-17 04:33N 49°13' W 123°49'1 1.1
2014-Nov-17 03:33N 49°13' W 123°51'1817.6
2014-Nov-17 02:33N 49°06' W 123°26'1311.3
2014-Nov-17 01:24N 49°00' W 123°08'1214.4
2014-Nov-17 00:33N 49°04' W 123°26'1818.0
2014-Nov-16 23:33N 49°13' W 123°49'2 2.2
2014-Nov-16 22:33N 49°12' W 123°52'1818.3
2014-Nov-16 21:33N 49°06' W 123°26'1313.1
2014-Nov-16 20:32N 49°00' W 123°08'1212.5
2014-Nov-16 19:34N 49°04' W 123°26'1817.8
2014-Nov-16 18:33N 49°13' W 123°49'5 3.8
2014-Nov-16 17:22N 49°10' W 123°53'0 0.0
2014-Nov-16 16:28N 49°10' W 123°53'0 0.0
2014-Nov-16 15:33N 49°10' W 123°53'0 0.0
2014-Nov-16 14:27N 49°10' W 123°53'0 0.0
2014-Nov-16 13:32N 49°10' W 123°53'0 0.0
2014-Nov-16 12:32N 49°10' W 123°53'0 0.0
2014-Nov-16 11:32N 49°10' W 123°53'0 0.0
2014-Nov-16 10:31N 49°10' W 123°53'0 0.0
2014-Nov-16 09:31N 49°10' W 123°53'0 0.0
2014-Nov-16 08:30N 49°10' W 123°53'0 0.0
2014-Nov-16 07:18N 49°10' W 123°53'0 0.0
2014-Nov-16 06:23N 49°10' W 123°53'0 0.0
2014-Nov-16 05:32N 49°10' W 123°53'  
Track history (hours):
 
Tides and Currents Weather Stations Pressure Air Temp Water Temp Dewpoint Dewpoint Depression Visibility Wind Speed Wind Dir Waves Ship Positions

Coastal Inspiration

Last reported at 2014-Nov-26 04:33 UTC. Time now 2014-Nov-26 05:10 UTC.
Position N 49°12' W 123°53'.

Length 160 m; draft 6 m.

Type: Passenger vessel. MMSI: 316011408.

Date/timePositionNaut miles runAvg speedWind from/ knotsBaromVisibWave heightAir tempDewpointWater temp
2014-Nov-26 04:33N 49°12' W 123°53'1 1.4
2014-Nov-26 03:34N 49°13' W 123°50'2019.9
2014-Nov-26 02:34N 49°05' W 123°23'1110.6
2014-Nov-26 01:33N 49°00' W 123°08'1414.4
2014-Nov-26 00:33N 49°05' W 123°28'1717.2
2014-Nov-25 23:33N 49°11' W 123°53'1 1.0
2014-Nov-25 22:34N 49°12' W 123°53'1918.7
2014-Nov-25 21:33N 49°06' W 123°26'1313.2
2014-Nov-25 20:33N 49°00' W 123°08'1111.1
2014-Nov-25 19:33N 49°03' W 123°24'1918.9
2014-Nov-25 18:33N 49°13' W 123°49'3 2.9
2014-Nov-25 17:34N 49°12' W 123°53'1817.8
2014-Nov-25 16:33N 49°07' W 123°27'1414.1
2014-Nov-25 15:33N 49°00' W 123°08'1211.9
2014-Nov-25 14:33N 49°04' W 123°25'1918.6
2014-Nov-25 13:33N 49°13' W 123°50'4 1.7
2014-Nov-25 11:18N 49°10' W 123°53'0 0.0
2014-Nov-25 10:33N 49°10' W 123°53'2 1.1
2014-Nov-25 08:33N 49°12' W 123°53'1818.6
2014-Nov-25 07:33N 49°06' W 123°26'1313.4
2014-Nov-25 06:33N 49°00' W 123°08'1111.5
2014-Nov-25 05:33N 49°03' W 123°25'1818.4
2014-Nov-25 04:33N 49°13' W 123°49'4 3.6
2014-Nov-25 03:33N 49°11' W 123°53'1818.4
2014-Nov-25 02:33N 49°06' W 123°26'1313.3
2014-Nov-25 01:33N 49°00' W 123°08'1212.2
2014-Nov-25 00:33N 49°04' W 123°26'1818.3
2014-Nov-24 23:33N 49°13' W 123°50'2 2.5
2014-Nov-24 22:33N 49°12' W 123°53'1817.6
2014-Nov-24 21:33N 49°07' W 123°27'1414.1
2014-Nov-24 20:33N 49°00' W 123°08'1111.1
2014-Nov-24 19:34N 49°04' W 123°24'1918.8
2014-Nov-24 18:33N 49°13' W 123°49'3 2.8
2014-Nov-24 17:33N 49°12' W 123°53'1817.7
2014-Nov-24 16:33N 49°07' W 123°27'1414.2
2014-Nov-24 15:33N 49°00' W 123°08'1111.3
2014-Nov-24 14:33N 49°03' W 123°24'1918.7
2014-Nov-24 13:33N 49°13' W 123°49'4 4.2
2014-Nov-24 12:32N 49°10' W 123°53'0 0.0
2014-Nov-24 11:32N 49°10' W 123°53'0 0.0
2014-Nov-24 10:33N 49°10' W 123°53'0 0.0
2014-Nov-24 09:33N 49°10' W 123°53'1 0.5
2014-Nov-24 08:33N 49°10' W 123°53'1716.4
2014-Nov-24 07:33N 49°07' W 123°28'1515.3
2014-Nov-24 06:34N 49°00' W 123°08'1212.1
2014-Nov-24 05:34N 49°04' W 123°25'1818.5
2014-Nov-24 04:34N 49°13' W 123°50'0 0.3
2014-Nov-24 03:33N 49°13' W 123°50'1918.7
2014-Nov-24 02:34N 49°08' W 123°22'1212.1
2014-Nov-24 01:33N 49°00' W 123°08'1211.6
2014-Nov-24 00:33N 49°04' W 123°25'1918.7
2014-Nov-23 23:33N 49°13' W 123°50'2 2.4
2014-Nov-23 22:33N 49°12' W 123°53'1817.9
2014-Nov-23 21:33N 49°06' W 123°27'1414.1
2014-Nov-23 20:34N 49°00' W 123°08'1212.2
2014-Nov-23 19:34N 49°04' W 123°26'1918.5
2014-Nov-23 18:33N 49°13' W 123°51'3 2.7
2014-Nov-23 17:17N 49°10' W 123°53'0 0.0
2014-Nov-23 16:29N 49°10' W 123°53'0 0.0
2014-Nov-23 15:33N 49°10' W 123°53'0 0.0
2014-Nov-23 14:33N 49°10' W 123°53'0 0.0
2014-Nov-23 13:33N 49°10' W 123°53'0 0.0
2014-Nov-23 12:33N 49°10' W 123°53'0 0.0
2014-Nov-23 11:33N 49°10' W 123°53'0 0.0
2014-Nov-23 10:33N 49°10' W 123°53'0 0.0
2014-Nov-23 09:33N 49°10' W 123°53'0 0.0
2014-Nov-23 08:33N 49°10' W 123°53'0 0.0
2014-Nov-23 07:33N 49°10' W 123°53'0 0.0
2014-Nov-23 06:30N 49°10' W 123°53'0 0.0
2014-Nov-23 05:33N 49°10' W 123°53'0 0.0
2014-Nov-23 04:33N 49°10' W 123°53'0 0.0
2014-Nov-23 03:32N 49°10' W 123°53'0 0.0
2014-Nov-23 01:31N 49°10' W 123°53'8 8.5
2014-Nov-23 00:33N 49°11' W 123°41'1919.3
2014-Nov-22 23:33N 49°01' W 123°16'3 3.2
2014-Nov-22 22:33N 49°00' W 123°12'1818.1
2014-Nov-22 21:33N 49°09' W 123°36'1111.5
2014-Nov-22 20:33N 49°10' W 123°53'10 9.6
2014-Nov-22 19:33N 49°11' W 123°39'1918.9
2014-Nov-22 18:33N 49°01' W 123°14'2 1.8
2014-Nov-22 17:33N 48°60' W 123°12'1818.1
2014-Nov-22 16:33N 49°09' W 123°36'1111.3
2014-Nov-22 15:33N 49°10' W 123°53'0 0.0
2014-Nov-22 14:27N 49°10' W 123°53'1 0.1
2014-Nov-22 08:33N 49°11' W 123°53'1717.0
2014-Nov-22 07:33N 49°07' W 123°28'1514.9
2014-Nov-22 06:33N 49°00' W 123°08'1111.5
2014-Nov-22 05:33N 49°04' W 123°25'1918.8
2014-Nov-22 04:33N 49°13' W 123°49'1 1.3
2014-Nov-22 03:33N 49°13' W 123°51'1918.7
2014-Nov-22 02:33N 49°06' W 123°25'1212.3
2014-Nov-22 01:34N 49°00' W 123°08'1212.1
2014-Nov-22 00:33N 49°04' W 123°26'1918.7
2014-Nov-21 23:33N 49°13' W 123°50'1 1.1
2014-Nov-21 22:33N 49°13' W 123°52'1817.7
2014-Nov-21 21:33N 49°06' W 123°26'1413.5
2014-Nov-21 20:33N 49°00' W 123°08'1010.0
2014-Nov-21 19:33N 49°03' W 123°23'1919.3
2014-Nov-21 18:33N 49°13' W 123°48'3 3.0
2014-Nov-21 17:34N 49°12' W 123°53'1817.5
2014-Nov-21 16:34N 49°06' W 123°27'1414.0
2014-Nov-21 15:33N 49°00' W 123°08'1212.0
2014-Nov-21 14:34N 49°04' W 123°25'1817.8
2014-Nov-21 13:33N 49°13' W 123°49'4 1.9
2014-Nov-21 11:19N 49°10' W 123°53'0 0.0
2014-Nov-21 10:21N 49°10' W 123°53'0 0.0
2014-Nov-21 09:12N 49°10' W 123°53'1 0.8
2014-Nov-21 08:33N 49°10' W 123°53'1716.9
2014-Nov-21 07:33N 49°07' W 123°28'1514.7
2014-Nov-21 06:34N 49°00' W 123°08'1312.5
2014-Nov-21 05:34N 49°04' W 123°26'1818.3
2014-Nov-21 04:34N 49°13' W 123°51'0 0.3
2014-Nov-21 03:33N 49°13' W 123°51'1818.5
2014-Nov-21 02:33N 49°05' W 123°25'1211.7
2014-Nov-21 01:31N 49°00' W 123°08'1313.6
2014-Nov-21 00:33N 49°05' W 123°27'1717.4
2014-Nov-20 23:34N 49°13' W 123°50'1 0.9
2014-Nov-20 22:33N 49°13' W 123°52'1817.7
2014-Nov-20 21:33N 49°06' W 123°27'1413.6
2014-Nov-20 20:33N 49°00' W 123°08'1212.4
2014-Nov-20 19:33N 49°04' W 123°26'1818.2
2014-Nov-20 18:33N 49°13' W 123°50'1 1.1
2014-Nov-20 17:33N 49°13' W 123°51'1717.4
2014-Nov-20 16:34N 49°06' W 123°27'1413.6
2014-Nov-20 15:33N 49°00' W 123°08'1212.1
2014-Nov-20 14:33N 49°04' W 123°26'1818.2
2014-Nov-20 13:33N 49°13' W 123°50'3 0.7
2014-Nov-20 08:33N 49°11' W 123°53'1616.5
2014-Nov-20 07:33N 49°07' W 123°29'1515.3
2014-Nov-20 06:33N 49°00' W 123°08'1211.7
2014-Nov-20 05:33N 49°04' W 123°25'1818.0
2014-Nov-20 04:34N 49°13' W 123°49'2 1.8
2014-Nov-20 03:33N 49°13' W 123°51'1817.6
2014-Nov-20 02:33N 49°06' W 123°26'1313.2
2014-Nov-20 01:33N 49°00' W 123°08'1212.4
2014-Nov-20 00:34N 49°04' W 123°26'1817.5
2014-Nov-19 23:33N 49°13' W 123°49'2 2.2
2014-Nov-19 22:33N 49°12' W 123°52'1817.5
2014-Nov-19 21:33N 49°06' W 123°27'1414.0
2014-Nov-19 20:33N 49°00' W 123°08'1010.3
2014-Nov-19 19:33N 49°03' W 123°23'1919.4
2014-Nov-19 18:34N 49°13' W 123°48'3 2.9
2014-Nov-19 17:33N 49°12' W 123°53'1717.5
2014-Nov-19 16:33N 49°06' W 123°28'1414.3
2014-Nov-19 15:33N 49°00' W 123°08'1312.7
2014-Nov-19 14:34N 49°04' W 123°26'1717.3
2014-Nov-19 13:34N 49°13' W 123°49'4 4.1
2014-Nov-19 12:32N 49°10' W 123°53'0 0.0
2014-Nov-19 11:33N 49°10' W 123°53'0 0.0
2014-Nov-19 10:33N 49°10' W 123°53'1 0.5
2014-Nov-19 08:33N 49°11' W 123°53'1717.2
2014-Nov-19 07:33N 49°07' W 123°28'1514.7
2014-Nov-19 06:33N 49°00' W 123°08'1211.8
2014-Nov-19 05:33N 49°04' W 123°25'1818.1
2014-Nov-19 04:33N 49°13' W 123°49'1 1.4
2014-Nov-19 03:33N 49°13' W 123°51'1818.0
2014-Nov-19 02:33N 49°06' W 123°26'1312.9
2014-Nov-19 01:33N 49°00' W 123°08'1312.8
2014-Nov-19 00:33N 49°04' W 123°26'1717.4
2014-Nov-18 23:33N 49°13' W 123°50'3 2.5
2014-Nov-18 22:34N 49°12' W 123°53'1817.6
2014-Nov-18 21:33N 49°07' W 123°27'1414.3
2014-Nov-18 20:33N 49°00' W 123°08'1211.8
2014-Nov-18 19:33N 49°04' W 123°25'1918.6
2014-Nov-18 18:33N 49°13' W 123°50'1 0.6
2014-Nov-18 17:33N 49°13' W 123°51'1616.0
2014-Nov-18 16:32N 49°06' W 123°28'1414.6
2014-Nov-18 15:33N 49°00' W 123°08'1212.0
2014-Nov-18 14:34N 49°04' W 123°25'1717.3
2014-Nov-18 13:33N 49°13' W 123°48'5 4.7
2014-Nov-18 12:34N 49°10' W 123°53'0 0.0
2014-Nov-18 11:32N 49°10' W 123°53'0 0.0
2014-Nov-18 10:25N 49°10' W 123°53'0 0.0
2014-Nov-18 09:33N 49°10' W 123°53'1 0.7
2014-Nov-18 08:33N 49°10' W 123°53'1717.1
2014-Nov-18 07:33N 49°07' W 123°28'1514.8
2014-Nov-18 06:33N 49°00' W 123°08'1312.5
2014-Nov-18 05:33N 49°04' W 123°26'1817.8
2014-Nov-18 04:33N 49°13' W 123°50'0 0.3
2014-Nov-18 03:33N 49°13' W 123°50'1918.6
2014-Nov-18 02:33N 49°06' W 123°24'1211.7
2014-Nov-18 01:34N 49°00' W 123°08'1312.5
2014-Nov-18 00:34N 49°04' W 123°26'1717.4
2014-Nov-17 23:33N 49°13' W 123°49'2 2.2
2014-Nov-17 22:33N 49°12' W 123°52'1817.8
2014-Nov-17 21:34N 49°07' W 123°27'1413.9
2014-Nov-17 20:33N 49°00' W 123°08'1212.0
2014-Nov-17 19:33N 49°04' W 123°25'1818.1
2014-Nov-17 18:33N 49°13' W 123°49'1 1.1
2014-Nov-17 17:33N 49°13' W 123°51'1817.6
2014-Nov-17 16:33N 49°06' W 123°26'1313.2
2014-Nov-17 15:33N 49°00' W 123°08'1211.7
2014-Nov-17 14:33N 49°04' W 123°25'1817.6
2014-Nov-17 13:33N 49°13' W 123°48'5 3.2
2014-Nov-17 12:07N 49°10' W 123°53'0 0.0
2014-Nov-17 10:33N 49°10' W 123°53'0 0.1
2014-Nov-17 08:33N 49°10' W 123°53'1616.1
2014-Nov-17 07:33N 49°07' W 123°29'1513.9
2014-Nov-17 06:27N 49°00' W 123°08'1112.7
2014-Nov-17 05:33N 49°03' W 123°25'1918.9
2014-Nov-17 04:33N 49°13' W 123°49'1 1.1
2014-Nov-17 03:33N 49°13' W 123°51'1817.6
2014-Nov-17 02:33N 49°06' W 123°26'1311.3
2014-Nov-17 01:24N 49°00' W 123°08'1214.4
2014-Nov-17 00:33N 49°04' W 123°26'1818.0
2014-Nov-16 23:33N 49°13' W 123°49'2 2.2
2014-Nov-16 22:33N 49°12' W 123°52'1818.3
2014-Nov-16 21:33N 49°06' W 123°26'1313.1
2014-Nov-16 20:32N 49°00' W 123°08'1212.5
2014-Nov-16 19:34N 49°04' W 123°26'1817.8
2014-Nov-16 18:33N 49°13' W 123°49'5 3.8
2014-Nov-16 17:22N 49°10' W 123°53'0 0.0
2014-Nov-16 16:28N 49°10' W 123°53'0 0.0
2014-Nov-16 15:33N 49°10' W 123°53'0 0.0
2014-Nov-16 14:27N 49°10' W 123°53'0 0.0
2014-Nov-16 13:32N 49°10' W 123°53'0 0.0
2014-Nov-16 12:32N 49°10' W 123°53'0 0.0
2014-Nov-16 11:32N 49°10' W 123°53'0 0.0
2014-Nov-16 10:31N 49°10' W 123°53'0 0.0
2014-Nov-16 09:31N 49°10' W 123°53'0 0.0
2014-Nov-16 08:30N 49°10' W 123°53'0 0.0
2014-Nov-16 07:18N 49°10' W 123°53'0 0.0
2014-Nov-16 06:23N 49°10' W 123°53'0 0.0
2014-Nov-16 05:32N 49°10' W 123°53'  

Dump ship's entire track history